Time;durP1;ratioP1;P1;durP2;ratioP2;P2;SDS_P1;SDS_P2;PMS_P1;PMS_P2;Temp;Humidity;BMP_temperature;BMP_pressure;BME280_temperature;BME280_humidity;BME280_pressure;Samples;Min_cycle;Max_cycle;Signal;HPM_P1;HPM_P2
2022/03/05 00:00:30;;;;;;;;;134.00;125.75;9.50;51.50;;;;;;4918815;29;8787;-67
2022/03/05 00:02:56;;;;;;;;;140.50;129.25;9.70;50.90;;;;;;4918285;29;8784;-67
2022/03/05 00:05:22;;;;;;;;;143.50;132.00;9.80;50.20;;;;;;4918522;29;8798;-66
2022/03/05 00:07:48;;;;;;;;;147.25;134.25;9.80;50.20;;;;;;4918075;29;8827;-67
2022/03/05 00:10:14;;;;;;;;;143.25;130.00;9.60;50.50;;;;;;4918311;29;8901;-67
2022/03/05 00:12:40;;;;;;;;;147.25;136.00;9.40;51.60;;;;;;4918384;29;8986;-67
2022/03/05 00:15:07;;;;;;;;;148.50;133.50;9.60;50.70;;;;;;4918659;29;8829;-67
2022/03/05 00:17:32;;;;;;;;;151.00;135.25;9.70;50.50;;;;;;4918424;29;8806;-66
2022/03/05 00:19:58;;;;;;;;;147.25;136.00;9.60;50.70;;;;;;4918425;29;8795;-66
2022/03/05 00:22:24;;;;;;;;;139.50;124.50;9.80;50.20;;;;;;4918346;29;8771;-67
2022/03/05 00:24:50;;;;;;;;;146.50;135.75;9.80;49.80;;;;;;4918061;29;8810;-67
2022/03/05 00:27:17;;;;;;;;;147.75;138.25;9.30;51.80;;;;;;4918161;29;8810;-66
2022/03/05 00:29:44;;;;;;;;;154.00;134.75;8.80;52.70;;;;;;4901459;29;8915;-67
2022/03/05 00:32:10;;;;;;;;;155.00;139.50;8.90;52.90;;;;;;4918106;29;8893;-66
2022/03/05 00:34:36;;;;;;;;;154.25;146.50;9.20;51.90;;;;;;4917995;29;8783;-67
2022/03/05 00:37:05;;;;;;;;;150.50;136.00;9.30;51.70;;;;;;4918157;29;8767;-66
2022/03/05 00:39:31;;;;;;;;;148.50;135.50;9.40;51.10;;;;;;4918110;29;8776;-67
2022/03/05 00:41:57;;;;;;;;;154.50;141.00;9.50;51.70;;;;;;4918096;29;8791;-67
2022/03/05 00:44:23;;;;;;;;;159.25;146.25;9.60;50.50;;;;;;4918226;29;8823;-67
2022/03/05 00:46:49;;;;;;;;;141.00;132.75;9.60;50.50;;;;;;4918163;29;8874;-68
2022/03/05 00:49:15;;;;;;;;;133.00;123.25;9.60;50.20;;;;;;4917598;29;8881;-67
2022/03/05 00:51:41;;;;;;;;;148.50;136.00;9.60;50.10;;;;;;4917930;29;8809;-68
2022/03/05 00:54:07;;;;;;;;;128.75;115.50;9.60;50.20;;;;;;4919190;29;8822;-67
2022/03/05 00:56:32;;;;;;;;;154.50;132.75;9.70;50.90;;;;;;4921893;29;8804;-67
2022/03/05 00:58:59;;;;;;;;;150.50;136.50;9.70;49.80;;;;;;4921465;29;8767;-67
2022/03/05 01:01:24;;;;;;;;;141.75;134.75;9.70;49.60;;;;;;4921998;29;9453;-68
2022/03/05 01:03:50;;;;;;;;;159.50;141.75;9.70;49.60;;;;;;4921833;29;8795;-67
2022/03/05 01:06:16;;;;;;;;;170.75;155.00;9.60;49.70;;;;;;4921916;29;8798;-68
2022/03/05 01:08:42;;;;;;;;;157.75;139.25;9.70;49.70;;;;;;4921330;29;9487;-67
2022/03/05 01:11:08;;;;;;;;;160.50;149.50;9.70;49.40;;;;;;4921640;29;8848;-67
2022/03/05 01:13:36;;;;;;;;;197.50;177.75;9.60;49.60;;;;;;4921476;29;8874;-68
2022/03/05 01:16:02;;;;;;;;;210.25;193.25;9.60;49.50;;;;;;4921423;29;8783;-68
2022/03/05 01:18:28;;;;;;;;;202.50;185.75;9.50;49.60;;;;;;4921496;29;8875;-68
2022/03/05 01:20:54;;;;;;;;;175.75;162.00;9.10;50.60;;;;;;4921485;29;8780;-66
2022/03/05 01:23:20;;;;;;;;;174.25;161.50;9.00;51.30;;;;;;4921289;29;9339;-70
2022/03/05 01:25:45;;;;;;;;;152.75;135.50;8.80;51.60;;;;;;4921342;29;8821;-67
2022/03/05 01:28:11;;;;;;;;;143.25;135.00;8.90;51.30;;;;;;4921120;29;8818;-67
2022/03/05 01:30:37;;;;;;;;;150.00;138.50;9.00;51.10;;;;;;4921270;29;8796;-68
2022/03/05 01:33:04;;;;;;;;;147.25;135.25;9.10;51.10;;;;;;4921249;29;8795;-67
2022/03/05 01:35:30;;;;;;;;;141.50;132.00;9.20;50.60;;;;;;4921270;29;8771;-68
2022/03/05 01:37:56;;;;;;;;;136.50;129.00;8.90;50.70;;;;;;4921424;29;8882;-67
2022/03/05 01:40:22;;;;;;;;;127.00;125.25;9.00;50.50;;;;;;4921085;29;8866;-67
2022/03/05 01:42:48;;;;;;;;;146.00;136.00;9.20;50.10;;;;;;4921055;29;8794;-68
2022/03/05 01:45:14;;;;;;;;;132.75;119.75;9.30;49.50;;;;;;4921402;29;8807;-68
2022/03/05 01:47:41;;;;;;;;;143.75;128.50;9.30;49.20;;;;;;4920873;29;8818;-67
2022/03/05 01:50:08;;;;;;;;;137.50;128.50;9.20;49.30;;;;;;4920934;29;8898;-66
2022/03/05 01:52:34;;;;;;;;;157.75;147.25;9.30;49.30;;;;;;4920541;29;8799;-68
2022/03/05 01:55:01;;;;;;;;;159.25;141.50;9.30;49.00;;;;;;4920887;29;8894;-67
2022/03/05 01:57:27;;;;;;;;;154.75;144.25;9.30;48.90;;;;;;4920735;29;8803;-67
2022/03/05 01:59:53;;;;;;;;;148.25;137.25;9.30;48.70;;;;;;4921010;29;8784;-67
2022/03/05 02:02:18;;;;;;;;;160.50;144.75;9.20;48.70;;;;;;4920697;29;8850;-67
2022/03/05 02:04:44;;;;;;;;;153.25;135.75;9.10;48.80;;;;;;4920385;29;8784;-67
2022/03/05 02:07:10;;;;;;;;;134.00;117.25;9.10;49.10;;;;;;4920532;29;8771;-68
2022/03/05 02:09:37;;;;;;;;;96.00;79.25;8.70;48.60;;;;;;4920491;29;8837;-66
2022/03/05 02:12:03;;;;;;;;;102.50;83.00;8.20;46.60;;;;;;4920643;29;8795;-68
2022/03/05 02:14:29;;;;;;;;;95.25;77.00;8.30;46.10;;;;;;4920570;29;8819;-68
2022/03/05 02:16:55;;;;;;;;;93.00;72.50;8.40;44.40;;;;;;4920397;29;8799;-68
2022/03/05 02:19:21;;;;;;;;;88.50;68.50;8.20;43.80;;;;;;4920636;29;8771;-68
2022/03/05 02:21:48;;;;;;;;;86.25;68.25;8.40;43.40;;;;;;4920626;29;8808;-66
2022/03/05 02:24:15;;;;;;;;;85.25;66.00;8.40;43.10;;;;;;4919963;29;8874;-68
2022/03/05 02:26:40;;;;;;;;;85.50;68.00;8.40;43.00;;;;;;4920794;29;8933;-68
2022/03/05 02:29:06;;;;;;;;;90.00;68.25;8.40;42.80;;;;;;4920099;29;8819;-68
2022/03/05 02:31:32;;;;;;;;;86.25;68.00;8.50;42.60;;;;;;4920194;29;8768;-68
2022/03/05 02:34:00;;;;;;;;;85.75;67.75;8.60;42.60;;;;;;4920121;29;8759;-68
2022/03/05 02:36:26;;;;;;;;;86.00;66.50;8.50;42.30;;;;;;4920017;29;8763;-67
2022/03/05 02:38:53;;;;;;;;;89.50;72.00;8.60;42.20;;;;;;4919890;29;8779;-68
2022/03/05 02:41:19;;;;;;;;;89.50;71.25;8.60;42.10;;;;;;4920267;29;8818;-68
2022/03/05 02:43:48;;;;;;;;;90.75;73.50;8.70;42.20;;;;;;4920096;29;8791;-68
2022/03/05 02:46:13;;;;;;;;;90.25;67.75;8.30;43.10;;;;;;4919870;29;8787;-68
2022/03/05 02:48:39;;;;;;;;;84.25;68.50;8.40;43.00;;;;;;4919978;29;8903;-68
2022/03/05 02:51:05;;;;;;;;;90.00;68.25;8.30;43.20;;;;;;4920173;29;8779;-68
2022/03/05 02:53:31;;;;;;;;;84.75;67.25;8.20;42.70;;;;;;4918983;29;8802;-67
2022/03/05 02:55:57;;;;;;;;;89.25;67.00;8.20;42.90;;;;;;4919401;29;8783;-68
2022/03/05 02:58:23;;;;;;;;;91.00;69.00;8.00;42.90;;;;;;4919607;29;8798;-67
2022/03/05 03:00:50;;;;;;;;;75.25;58.25;8.00;42.70;;;;;;4919638;29;8791;-68
2022/03/05 03:03:16;;;;;;;;;83.25;65.00;7.90;42.60;;;;;;4919968;29;8775;-68
2022/03/05 03:05:42;;;;;;;;;83.75;64.25;7.90;43.80;;;;;;4919665;29;8820;-68
2022/03/05 03:08:07;;;;;;;;;83.00;64.50;7.90;42.60;;;;;;4919441;29;8831;-68
2022/03/05 03:10:33;;;;;;;;;84.50;64.25;8.00;42.50;;;;;;4919469;29;8783;-68
2022/03/05 03:12:59;;;;;;;;;76.50;60.75;7.90;42.20;;;;;;4919799;29;8917;-68
2022/03/05 03:15:26;;;;;;;;;80.00;62.75;7.70;42.90;;;;;;4919752;29;8823;-68
2022/03/05 03:17:52;;;;;;;;;87.25;67.75;7.50;43.30;;;;;;4918874;29;8775;-68
2022/03/05 03:20:22;;;;;;;;;74.25;57.25;7.10;44.60;;;;;;4919308;29;8814;-68
2022/03/05 03:22:48;;;;;;;;;83.25;65.50;7.50;43.70;;;;;;4919308;29;8801;-68
2022/03/05 03:25:15;;;;;;;;;78.00;61.75;7.40;43.90;;;;;;4919345;29;8810;-68
2022/03/05 03:27:41;;;;;;;;;73.75;59.00;7.80;43.40;;;;;;4919405;29;8815;-68
2022/03/05 03:30:09;;;;;;;;;69.25;53.00;7.90;42.60;;;;;;4919407;29;8802;-68
2022/03/05 03:32:35;;;;;;;;;71.25;54.00;8.20;42.00;;;;;;4918015;29;8810;-68
2022/03/05 03:35:01;;;;;;;;;78.00;62.75;8.50;41.50;;;;;;4919150;29;8772;-67
2022/03/05 03:37:29;;;;;;;;;69.75;55.75;8.80;40.80;;;;;;4919053;29;8823;-66
2022/03/05 03:39:59;;;;;;;;;68.75;57.00;9.00;40.00;;;;;;4902767;29;9676;-66
2022/03/05 03:42:26;;;;;;;;;70.00;54.75;9.10;39.60;;;;;;4918945;29;8794;-67
2022/03/05 03:44:53;;;;;;;;;75.50;55.00;9.10;39.40;;;;;;4919292;29;9463;-66
2022/03/05 03:47:20;;;;;;;;;75.75;57.25;9.20;39.40;;;;;;4918824;29;8791;-66
2022/03/05 03:49:47;;;;;;;;;70.00;56.25;9.20;38.80;;;;;;4918692;29;8776;-66
2022/03/05 03:52:15;;;;;;;;;66.50;52.50;9.30;39.00;;;;;;4918907;29;9605;-66
2022/03/05 03:54:42;;;;;;;;;72.25;56.00;9.20;38.80;;;;;;4919041;29;8772;-66
2022/03/05 03:57:08;;;;;;;;;62.00;50.25;9.30;38.80;;;;;;4918636;29;8846;-66
2022/03/05 03:59:34;;;;;;;;;68.75;56.25;9.20;38.90;;;;;;4918741;29;8776;-66
2022/03/05 04:02:03;;;;;;;;;62.50;51.50;9.10;39.80;;;;;;4918580;29;8775;-66
2022/03/05 04:04:30;;;;;;;;;70.25;56.75;9.10;38.50;;;;;;4918618;29;8787;-66
2022/03/05 04:09:40;;;;;;;;;76.25;59.00;8.80;39.20;;;;;;4918364;29;8917;-67
2022/03/05 04:12:07;;;;;;;;;75.25;57.00;8.40;40.20;;;;;;4918511;29;8898;-67
2022/03/05 04:14:33;;;;;;;;;78.25;59.25;8.20;40.80;;;;;;4918496;29;8835;-67
2022/03/05 04:16:58;;;;;;;;;70.75;57.00;7.80;41.20;;;;;;4918377;29;8892;-66
2022/03/05 04:19:24;;;;;;;;;72.00;55.25;7.40;42.50;;;;;;4918365;29;8802;-67
2022/03/05 04:21:50;;;;;;;;;73.75;58.25;6.90;43.60;;;;;;4918569;29;8795;-67
2022/03/05 04:24:16;;;;;;;;;71.75;58.00;6.90;43.80;;;;;;4918464;29;8784;-67
2022/03/05 04:26:41;;;;;;;;;73.00;59.25;6.70;44.40;;;;;;4918120;29;8810;-67
2022/03/05 04:29:07;;;;;;;;;78.50;61.25;6.90;44.30;;;;;;4917894;29;8831;-67
2022/03/05 04:31:33;;;;;;;;;76.25;57.75;7.00;44.00;;;;;;4917925;29;8814;-67
2022/03/05 04:33:59;;;;;;;;;77.00;59.50;7.30;43.50;;;;;;4918122;29;8787;-67
2022/03/05 04:36:24;;;;;;;;;78.00;62.00;7.10;43.40;;;;;;4918319;29;8779;-67
2022/03/05 04:38:50;;;;;;;;;74.00;58.00;7.50;42.90;;;;;;4917523;29;8814;-67
2022/03/05 04:41:16;;;;;;;;;66.75;52.75;8.00;42.40;;;;;;4918153;29;8787;-67
2022/03/05 04:43:42;;;;;;;;;77.25;60.00;8.30;41.50;;;;;;4918034;29;8854;-67
2022/03/05 04:46:08;;;;;;;;;73.25;55.75;8.10;41.00;;;;;;4917925;29;9431;-67
2022/03/05 04:48:34;;;;;;;;;76.50;61.00;7.90;41.70;;;;;;4917880;29;8787;-67
2022/03/05 04:51:00;;;;;;;;;89.75;66.25;7.60;43.10;;;;;;4918076;29;8775;-67
2022/03/05 04:53:26;;;;;;;;;82.75;61.00;7.50;42.10;;;;;;4917868;29;8784;-67
2022/03/05 04:55:52;;;;;;;;;85.25;67.00;6.90;44.00;;;;;;4917939;29;8791;-67
2022/03/05 04:58:18;;;;;;;;;76.00;61.75;7.30;43.60;;;;;;4917787;29;8807;-66
2022/03/05 05:00:44;;;;;;;;;79.25;64.50;7.50;43.00;;;;;;4918191;29;9427;-67
2022/03/05 05:03:10;;;;;;;;;82.50;64.00;7.40;43.00;;;;;;4901100;29;8784;-67
2022/03/05 05:05:35;;;;;;;;;81.75;65.00;7.20;43.00;;;;;;4918073;29;8783;-67
2022/03/05 05:08:01;;;;;;;;;77.00;59.50;7.40;43.10;;;;;;4917566;29;9419;-67
2022/03/05 05:10:27;;;;;;;;;79.00;63.00;7.60;42.50;;;;;;4917783;29;8796;-67
2022/03/05 05:12:53;;;;;;;;;72.00;55.00;7.80;41.90;;;;;;4917658;29;8764;-67
2022/03/05 05:15:19;;;;;;;;;81.75;62.75;7.50;42.10;;;;;;4917984;29;8826;-67
2022/03/05 05:17:44;;;;;;;;;82.50;64.75;7.40;42.40;;;;;;4917940;29;8779;-67
2022/03/05 05:20:11;;;;;;;;;80.75;64.50;7.00;43.30;;;;;;4917960;29;9537;-67
2022/03/05 05:22:37;;;;;;;;;79.50;60.50;7.00;43.30;;;;;;4917780;29;8799;-67
2022/03/05 05:25:04;;;;;;;;;75.00;58.00;7.00;43.30;;;;;;4917670;29;8768;-67
2022/03/05 05:27:34;;;;;;;;;68.00;57.00;6.90;43.00;;;;;;4917593;29;8771;-67
2022/03/05 05:29:59;;;;;;;;;80.25;61.75;7.00;43.10;;;;;;4918100;29;8780;-67
2022/03/05 05:32:25;;;;;;;;;80.50;60.00;7.20;43.10;;;;;;4917766;29;8898;-67
2022/03/05 05:34:51;;;;;;;;;74.25;58.75;7.50;42.10;;;;;;4917909;29;8802;-67
2022/03/05 05:37:17;;;;;;;;;83.00;66.00;7.60;41.70;;;;;;4917743;29;8795;-67
2022/03/05 05:39:43;;;;;;;;;82.00;66.50;7.60;41.70;;;;;;4915800;29;9447;-68
2022/03/05 05:42:09;;;;;;;;;83.75;64.50;7.20;42.50;;;;;;4921045;29;8810;-67
2022/03/05 05:44:34;;;;;;;;;78.75;59.25;6.90;43.00;;;;;;4921259;29;8807;-67
2022/03/05 05:47:00;;;;;;;;;75.00;60.00;7.10;43.20;;;;;;4921005;29;8771;-67
2022/03/05 05:49:26;;;;;;;;;75.00;60.50;7.00;43.00;;;;;;4920403;29;8823;-67
2022/03/05 05:51:52;;;;;;;;;66.00;54.00;6.50;44.20;;;;;;4920821;29;8902;-67
2022/03/05 05:54:17;;;;;;;;;74.25;57.50;6.70;44.20;;;;;;4920839;29;8800;-67
2022/03/05 05:56:43;;;;;;;;;70.75;57.50;6.90;43.70;;;;;;4921084;29;8791;-67
2022/03/05 05:59:09;;;;;;;;;69.50;57.00;7.10;43.30;;;;;;4921026;29;8789;-67
2022/03/05 06:01:35;;;;;;;;;76.50;60.00;7.20;43.30;;;;;;4920906;29;8824;-66
2022/03/05 06:04:01;;;;;;;;;81.00;62.00;7.00;43.10;;;;;;4920704;29;8914;-66
2022/03/05 06:06:26;;;;;;;;;76.00;57.00;7.00;43.40;;;;;;4920667;29;8791;-67
2022/03/05 06:08:52;;;;;;;;;76.00;61.50;7.20;43.10;;;;;;4920577;29;8819;-67
2022/03/05 06:11:19;;;;;;;;;82.25;63.25;7.30;43.20;;;;;;4920960;29;8803;-66
2022/03/05 06:13:44;;;;;;;;;70.50;56.50;7.10;43.30;;;;;;4920539;29;8819;-66
2022/03/05 06:16:11;;;;;;;;;73.75;57.00;7.10;43.30;;;;;;4920721;29;8802;-66
2022/03/05 06:18:37;;;;;;;;;73.25;59.00;7.10;43.30;;;;;;4920760;29;9460;-66
2022/03/05 06:21:05;;;;;;;;;72.00;55.25;7.00;43.10;;;;;;4920528;29;8772;-66
2022/03/05 06:23:32;;;;;;;;;73.00;57.25;6.80;44.30;;;;;;4920434;29;8803;-66
2022/03/05 06:25:58;;;;;;;;;73.50;57.50;6.90;43.50;;;;;;4920382;29;9488;-67
2022/03/05 06:28:24;;;;;;;;;73.00;54.50;7.10;42.80;;;;;;4920739;29;8885;-67
2022/03/05 06:30:50;;;;;;;;;68.75;56.00;7.30;42.60;;;;;;4920529;29;8786;-66
2022/03/05 06:33:16;;;;;;;;;69.50;56.25;7.50;42.20;;;;;;4920573;29;9394;-67
2022/03/05 06:35:41;;;;;;;;;71.25;56.00;7.60;41.60;;;;;;4920436;29;8791;-67
2022/03/05 06:38:07;;;;;;;;;74.25;57.75;7.30;42.40;;;;;;4920365;29;8821;-68
2022/03/05 06:40:33;;;;;;;;;74.75;59.50;7.20;42.30;;;;;;4920323;29;8791;-68
2022/03/05 06:42:59;;;;;;;;;80.00;60.75;6.90;43.90;;;;;;4920070;29;8760;-68
2022/03/05 06:45:25;;;;;;;;;76.00;57.00;7.00;43.60;;;;;;4920538;29;8827;-68
2022/03/05 06:47:50;;;;;;;;;72.25;56.00;7.00;42.90;;;;;;4919862;29;8822;-68
2022/03/05 06:50:16;;;;;;;;;76.00;59.50;6.40;43.90;;;;;;4920161;29;8796;-68
2022/03/05 06:52:42;;;;;;;;;68.50;54.00;6.40;44.00;;;;;;4919808;29;9187;-68
2022/03/05 06:55:13;;;;;;;;;67.25;52.25;6.10;44.70;;;;;;4920035;29;8905;-68
2022/03/05 06:57:39;;;;;;;;;75.25;59.00;6.00;45.90;;;;;;4919800;29;8801;-68
2022/03/05 07:00:05;;;;;;;;;61.25;49.50;6.40;45.40;;;;;;4919583;29;8791;-68
2022/03/05 07:02:31;;;;;;;;;66.75;55.00;6.50;44.70;;;;;;4919868;29;9482;-68
2022/03/05 07:04:57;;;;;;;;;78.25;57.75;6.30;45.40;;;;;;4919985;29;8960;-68
2022/03/05 07:07:23;;;;;;;;;71.50;56.50;6.50;45.00;;;;;;4919621;29;8806;-68
2022/03/05 07:09:49;;;;;;;;;76.50;57.75;6.60;44.90;;;;;;4919443;29;8827;-68
2022/03/05 07:12:14;;;;;;;;;75.00;57.50;6.80;44.70;;;;;;4919751;29;9489;-68
2022/03/05 07:14:41;;;;;;;;;75.75;58.50;6.60;44.80;;;;;;4919814;29;8815;-68
2022/03/05 07:17:07;;;;;;;;;74.25;55.50;6.80;44.00;;;;;;4919547;29;8803;-68
2022/03/05 07:19:33;;;;;;;;;71.25;56.75;7.20;43.10;;;;;;4919197;29;8818;-68
2022/03/05 07:21:59;;;;;;;;;73.50;57.25;7.10;43.50;;;;;;4919409;29;8806;-68
2022/03/05 07:24:25;;;;;;;;;76.25;56.75;7.40;42.70;;;;;;4919311;29;8796;-68
2022/03/05 07:26:50;;;;;;;;;64.75;50.50;7.50;42.20;;;;;;4919543;29;8803;-68
2022/03/05 07:29:16;;;;;;;;;66.75;54.00;7.20;43.40;;;;;;4919387;29;9512;-68
2022/03/05 07:31:42;;;;;;;;;67.25;53.00;7.60;42.40;;;;;;4919388;29;9462;-68
2022/03/05 07:34:07;;;;;;;;;61.75;48.25;7.90;41.70;;;;;;4919220;29;9466;-69
2022/03/05 07:36:34;;;;;;;;;68.25;55.25;8.00;41.30;;;;;;4919317;29;8870;-68
2022/03/05 07:38:59;;;;;;;;;61.25;49.75;8.50;40.40;;;;;;4918973;29;8799;-68
2022/03/05 07:41:25;;;;;;;;;60.50;49.50;7.70;40.50;;;;;;4918578;29;9469;-68
2022/03/05 07:43:52;;;;;;;;;68.75;54.00;7.80;41.40;;;;;;4919252;29;8961;-69
2022/03/05 07:46:18;;;;;;;;;69.25;53.75;7.70;41.20;;;;;;4918939;29;8878;-68
2022/03/05 07:48:44;;;;;;;;;60.00;47.00;7.50;41.90;;;;;;4919034;29;9583;-68
2022/03/05 07:51:09;;;;;;;;;65.00;50.25;7.60;41.90;;;;;;4919083;29;8779;-68
2022/03/05 07:53:35;;;;;;;;;60.25;49.75;7.60;41.70;;;;;;4919124;29;8771;-67
2022/03/05 07:56:01;;;;;;;;;68.25;54.75;7.70;41.40;;;;;;4918774;29;8792;-67
2022/03/05 07:58:27;;;;;;;;;60.50;48.00;7.70;42.20;;;;;;4918578;29;8922;-67
2022/03/05 08:00:53;;;;;;;;;60.75;50.75;7.60;41.50;;;;;;4918281;29;8799;-67
2022/03/05 08:03:18;;;;;;;;;62.75;52.75;7.80;41.30;;;;;;4917545;29;8796;-67
2022/03/05 08:05:45;;;;;;;;;66.25;50.25;7.70;42.20;;;;;;4918727;29;8794;-66
2022/03/05 08:08:11;;;;;;;;;59.00;46.50;7.50;42.40;;;;;;4918509;29;8827;-66
2022/03/05 08:10:37;;;;;;;;;60.50;46.25;7.80;41.40;;;;;;4917664;29;8913;-66
2022/03/05 08:13:03;;;;;;;;;66.25;54.25;7.60;41.80;;;;;;4917563;29;8783;-66
2022/03/05 08:15:29;;;;;;;;;65.00;53.00;8.00;41.10;;;;;;4918447;29;9455;-69
2022/03/05 08:18:00;;;;;;;;;65.00;54.00;8.80;41.50;;;;;;4917669;29;8818;-68
2022/03/05 08:20:30;;;;;;;;;58.00;45.50;9.00;40.80;;;;;;4917214;29;8815;-69
2022/03/05 08:22:56;;;;;;;;;63.50;50.50;8.90;39.50;;;;;;4896943;29;8791;-69
2022/03/05 08:25:22;;;;;;;;;57.25;44.75;8.50;40.70;;;;;;4913935;29;8811;-69
2022/03/05 08:27:48;;;;;;;;;68.25;52.50;8.50;40.20;;;;;;4918181;29;8854;-68
2022/03/05 08:30:15;;;;;;;;;64.50;52.00;8.80;40.00;;;;;;4918271;29;8783;-72
2022/03/05 08:32:41;;;;;;;;;62.75;50.25;8.60;40.60;;;;;;4917035;29;8799;-67
2022/03/05 08:35:08;;;;;;;;;65.50;52.50;8.40;41.40;;;;;;4918076;29;8795;-65
2022/03/05 08:37:35;;;;;;;;;59.75;47.50;8.50;41.60;;;;;;4916407;29;8789;-69
2022/03/05 08:40:01;;;;;;;;;58.25;43.25;8.90;40.50;;;;;;4914777;29;8884;-69
2022/03/05 08:42:27;;;;;;;;;60.00;50.50;9.40;40.60;;;;;;4914045;29;8822;-68
2022/03/05 08:44:52;;;;;;;;;60.75;47.00;9.30;39.90;;;;;;4917944;29;8831;-68
2022/03/05 08:47:18;;;;;;;;;76.75;60.25;9.40;39.60;;;;;;4917737;29;8855;-63
2022/03/05 08:49:44;;;;;;;;;69.75;49.75;9.10;41.20;;;;;;4917958;29;8824;-69
2022/03/05 08:52:10;;;;;;;;;62.75;50.00;9.30;39.70;;;;;;4918043;29;8783;-69
2022/03/05 08:54:36;;;;;;;;;61.00;50.50;9.20;39.40;;;;;;4918064;29;8790;-68
2022/03/05 08:57:03;;;;;;;;;51.25;44.00;9.30;39.50;;;;;;4917388;29;8886;-71
2022/03/05 08:59:28;;;;;;;;;42.50;39.50;9.90;37.80;;;;;;4917381;29;8822;-65
2022/03/05 09:01:55;;;;;;;;;59.00;48.25;10.10;38.10;;;;;;4917392;29;8801;-68
2022/03/05 09:04:22;;;;;;;;;63.75;50.00;10.30;37.70;;;;;;4918198;29;8796;-71
2022/03/05 09:06:48;;;;;;;;;61.50;49.00;9.80;37.70;;;;;;4918106;29;9498;-65
2022/03/05 09:09:14;;;;;;;;;61.75;50.00;9.60;38.40;;;;;;4917582;29;8878;-66
2022/03/05 09:11:39;;;;;;;;;65.25;48.50;9.70;38.20;;;;;;4917797;29;8795;-68
2022/03/05 09:14:06;;;;;;;;;62.50;51.00;9.80;38.00;;;;;;4917318;29;8857;-69
2022/03/05 09:16:35;;;;;;;;;61.00;47.25;9.70;38.50;;;;;;4920780;29;8893;-69
2022/03/05 09:19:01;;;;;;;;;53.50;44.75;9.70;38.10;;;;;;4921260;29;8803;-69
2022/03/05 09:21:27;;;;;;;;;58.25;47.25;10.00;37.60;;;;;;4921604;29;8791;-70
2022/03/05 09:23:52;;;;;;;;;54.00;44.75;10.10;37.30;;;;;;4921845;29;8772;-68
2022/03/05 09:26:18;;;;;;;;;55.75;45.00;9.40;38.90;;;;;;4921727;29;8795;-66
2022/03/05 09:28:44;;;;;;;;;57.50;47.75;9.40;38.20;;;;;;4904576;29;8827;-68
2022/03/05 09:31:11;;;;;;;;;57.50;46.00;9.60;38.80;;;;;;4921305;29;8772;-68
2022/03/05 09:33:37;;;;;;;;;58.25;47.00;10.20;37.60;;;;;;4921215;29;8787;-68
2022/03/05 09:36:03;;;;;;;;;49.75;41.75;10.30;35.80;;;;;;4921673;29;8878;-68
2022/03/05 09:38:29;;;;;;;;;52.25;43.75;10.70;36.30;;;;;;4921300;29;8787;-69
2022/03/05 09:40:55;;;;;;;;;54.25;43.25;11.10;36.10;;;;;;4921392;29;8783;-69
2022/03/05 09:43:22;;;;;;;;;44.50;38.75;11.20;35.80;;;;;;4921382;29;8779;-69
2022/03/05 09:45:49;;;;;;;;;51.50;42.00;11.60;34.30;;;;;;4921392;29;8830;-68
2022/03/05 09:48:17;;;;;;;;;36.50;34.00;11.50;33.90;;;;;;4921262;29;8915;-68
2022/03/05 09:50:44;;;;;;;;;47.25;38.50;11.70;33.30;;;;;;4920620;29;9465;-66
2022/03/05 09:53:10;;;;;;;;;61.50;49.50;11.30;34.10;;;;;;4920770;29;8771;-67
2022/03/05 09:55:36;;;;;;;;;54.75;45.00;11.10;34.30;;;;;;4921182;29;8780;-68
2022/03/05 09:58:02;;;;;;;;;56.75;45.25;11.00;34.70;;;;;;4921029;29;8775;-67
2022/03/05 10:00:30;;;;;;;;;50.75;41.75;10.10;36.50;;;;;;4919644;29;8818;-67
2022/03/05 10:02:56;;;;;;;;;57.25;46.75;9.90;38.40;;;;;;4916891;29;8816;-67
2022/03/05 10:05:31;;;;;;;;;62.50;47.50;10.20;38.60;;;;;;4919283;29;8803;-67
2022/03/05 10:08:10;;;;;;;;;54.25;43.00;10.50;37.40;;;;;;4916351;29;8847;-67
2022/03/05 10:11:01;;;;;;;;;53.50;44.75;11.10;35.70;;;;;;4918587;29;8791;-69
2022/03/05 10:13:30;;;;;;;;;57.00;48.00;11.00;36.20;;;;;;4911984;29;8804;-67
2022/03/05 10:16:00;;;;;;;;;57.00;48.75;11.50;34.60;;;;;;4919860;29;8886;-66
2022/03/05 10:18:39;;;;;;;;;60.00;47.75;11.60;34.50;;;;;;4917773;29;9452;-67
2022/03/05 10:21:08;;;;;;;;;64.75;49.00;11.40;34.50;;;;;;4913397;29;8885;-69
2022/03/05 10:23:36;;;;;;;;;69.00;52.25;11.30;34.00;;;;;;4912649;29;8811;-67
2022/03/05 10:26:05;;;;;;;;;56.00;44.75;11.30;34.00;;;;;;4910089;29;8807;-69
2022/03/05 10:28:31;;;;;;;;;52.00;44.00;12.30;32.70;;;;;;4913375;29;8826;-68
2022/03/05 10:31:16;;;;;;;;;47.75;38.25;13.50;31.70;;;;;;4913763;29;8786;-68
2022/03/05 10:33:45;;;;;;;;;60.25;48.25;14.30;30.30;;;;;;4911281;29;8806;-69
2022/03/05 10:36:25;;;;;;;;;48.25;41.00;14.20;29.90;;;;;;4914068;29;8775;-69
2022/03/05 10:38:55;;;;;;;;;52.00;41.25;14.20;30.00;;;;;;4910863;29;9439;-68
2022/03/05 10:41:23;;;;;;;;;52.25;42.00;14.50;29.60;;;;;;4912491;29;8801;-69
2022/03/05 10:44:06;;;;;;;;;52.50;43.00;14.60;28.60;;;;;;4913502;29;8886;-69
2022/03/05 10:46:38;;;;;;;;;53.75;41.50;14.50;28.60;;;;;;4912588;29;9485;-67
2022/03/05 10:49:08;;;;;;;;;48.00;38.75;14.70;28.60;;;;;;4912720;29;8859;-70
2022/03/05 10:51:33;;;;;;;;;60.50;47.00;14.40;28.30;;;;;;4913467;29;8810;-68
2022/03/05 10:53:59;;;;;;;;;49.50;38.00;14.30;28.60;;;;;;4913877;29;8838;-70
2022/03/05 10:56:28;;;;;;;;;49.75;37.25;13.70;29.30;;;;;;4917994;29;8797;-67
2022/03/05 10:59:04;;;;;;;;;67.25;51.00;13.50;30.30;;;;;;4914007;29;8980;-67
2022/03/05 11:01:30;;;;;;;;;61.75;48.00;13.10;30.30;;;;;;4911389;29;8895;-71
2022/03/05 11:03:57;;;;;;;;;62.00;49.25;12.60;32.40;;;;;;4913682;29;9504;-70
2022/03/05 11:06:24;;;;;;;;;60.00;48.25;12.40;32.50;;;;;;4913391;29;8898;-67
2022/03/05 11:08:50;;;;;;;;;48.00;39.50;13.40;31.60;;;;;;4912927;29;8855;-67
2022/03/05 11:11:18;;;;;;;;;52.75;41.00;17.90;27.60;;;;;;4913485;29;8775;-71
2022/03/05 11:13:44;;;;;;;;;52.00;42.00;22.50;23.60;;;;;;4913398;29;8799;-69
2022/03/05 11:16:11;;;;;;;;;53.67;43.00;25.60;20.30;;;;;;4913091;29;9436;-69
2022/03/05 11:18:38;;;;;;;;;49.00;41.33;27.90;18.20;;;;;;4912949;29;8814;-68
2022/03/05 11:21:05;;;;;;;;;53.33;43.67;28.60;17.50;;;;;;4912878;29;8776;-68
2022/03/05 11:23:33;;;;;;;;;54.33;45.33;29.50;16.80;;;;;;4912262;29;8906;-70
2022/03/05 11:26:00;;;;;;;;;49.00;40.00;29.10;16.70;;;;;;4912550;29;8769;-69
2022/03/05 11:28:35;;;;;;;;;44.00;37.67;30.20;16.10;;;;;;4912625;29;8814;-69
2022/03/05 11:31:05;;;;;;;;;45.67;39.00;29.70;15.80;;;;;;4913256;29;8875;-68
2022/03/05 11:33:38;;;;;;;;;50.33;42.67;30.20;15.70;;;;;;4910894;29;8794;-69
2022/03/05 11:36:22;;;;;;;;;47.00;40.00;29.30;15.80;;;;;;4919014;29;8795;-70
2022/03/05 11:38:47;;;;;;;;;48.00;41.00;27.70;16.20;;;;;;4918008;29;8805;-71
2022/03/05 11:41:19;;;;;;;;;51.00;44.00;27.20;16.60;;;;;;4919156;29;8775;-72
2022/03/05 11:43:46;;;;;;;;;50.67;43.00;28.90;16.00;;;;;;4918932;29;8809;-71
2022/03/05 11:46:24;;;;;;;;;52.67;45.00;29.50;15.40;;;;;;4917957;29;8783;-70
2022/03/05 11:49:19;;;;;;;;;50.67;43.00;31.50;15.00;;;;;;4911885;29;8826;-71
2022/03/05 11:51:55;;;;;;;;;51.00;43.67;31.70;14.20;;;;;;4890178;29;8938;-70
2022/03/05 11:54:22;;;;;;;;;47.67;40.33;31.70;14.80;;;;;;4906276;29;8893;-69
2022/03/05 11:57:14;;;;;;;;;44.67;39.33;31.40;14.70;;;;;;4913074;29;8857;-68
2022/03/05 11:59:43;;;;;;;;;48.67;41.67;25.20;16.00;;;;;;4913242;29;8905;-71
2022/03/05 12:02:09;;;;;;;;;37.67;34.67;23.40;18.80;;;;;;4896671;29;9556;-69
2022/03/05 12:04:34;;;;;;;;;50.33;42.00;24.90;18.10;;;;;;4912457;29;8926;-71
2022/03/05 12:07:03;;;;;;;;;45.67;39.33;27.40;17.10;;;;;;4913821;29;8794;-69
2022/03/05 12:09:33;;;;;;;;;49.67;42.33;26.60;16.80;;;;;;4913353;29;8933;-69
2022/03/05 12:11:59;;;;;;;;;48.33;41.00;27.10;16.50;;;;;;4913066;29;8911;-71
2022/03/05 12:15:00;;;;;;;;;45.00;38.33;28.90;16.00;;;;;;4912846;29;8842;-69
2022/03/05 12:17:39;;;;;;;;;43.67;38.00;32.20;14.70;;;;;;4883084;29;8933;-69
2022/03/05 12:20:10;;;;;;;;;42.00;37.00;29.50;13.80;;;;;;4913800;29;9572;-71
2022/03/05 12:22:44;;;;;;;;;46.00;40.00;26.60;15.90;;;;;;4913186;29;8787;-71
2022/03/05 12:25:11;;;;;;;;;45.67;39.67;25.20;17.20;;;;;;4913108;29;8815;-71
2022/03/05 12:27:46;;;;;;;;;35.33;32.67;27.20;16.10;;;;;;4913374;29;8784;-72
2022/03/05 12:30:13;;;;;;;;;35.67;33.00;29.00;15.00;;;;;;4913273;29;8811;-70
2022/03/05 12:32:41;;;;;;;;;44.67;38.33;31.60;15.00;;;;;;4913376;29;8799;-70
2022/03/05 12:35:08;;;;;;;;;46.67;40.33;32.60;13.90;;;;;;4913397;29;8822;-69
2022/03/05 12:37:35;;;;;;;;;42.33;36.33;32.40;13.50;;;;;;4913581;29;8768;-69
2022/03/05 12:40:03;;;;;;;;;45.00;38.00;31.40;13.60;;;;;;4913005;29;8947;-71
2022/03/05 12:42:46;;;;;;;;;44.33;38.67;30.30;13.70;;;;;;4908226;29;8819;-69